Time;durP1;ratioP1;P1;durP2;ratioP2;P2;SDS_P1;SDS_P2;PMS_P1;PMS_P2;Temp;Humidity;BMP_temperature;BMP_pressure;BME280_temperature;BME280_humidity;BME280_pressure;Samples;Min_cycle;Max_cycle;Signal;HPM_P1;HPM_P2
2024/02/04 00:01:26;;;;;;;30.20;13.02;;;;;;;;;;5042853;28;20173;-71
2024/02/04 00:03:51;;;;;;;28.30;12.57;;;;;;;;;;5042938;28;20197;-71
2024/02/04 00:06:16;;;;;;;27.63;11.98;;;;;;;;;;5043828;28;20530;-70
2024/02/04 00:08:42;;;;;;;24.08;12.05;;;;;;;;;;5037813;28;20537;-70
2024/02/04 00:11:11;;;;;;;28.45;13.65;;;;;;;;;;5045416;28;20260;-70
2024/02/04 00:13:36;;;;;;;34.28;14.02;;;;;;;;;;5045493;28;20213;-69
2024/02/04 00:16:01;;;;;;;36.22;14.80;;;;;;;;;;5025199;28;20181;-70
2024/02/04 00:18:27;;;;;;;29.13;13.13;;;;;;;;;;5041734;28;20205;-70
2024/02/04 00:20:52;;;;;;;25.60;13.02;;;;;;;;;;5046612;28;20185;-71
2024/02/04 00:23:17;;;;;;;39.58;14.00;;;;;;;;;;5031740;28;20576;-70
2024/02/04 00:25:43;;;;;;;29.60;12.85;;;;;;;;;;5029939;28;20178;-71
2024/02/04 00:28:11;;;;;;;32.03;12.85;;;;;;;;;;5049949;28;20177;-70
2024/02/04 00:30:36;;;;;;;30.70;12.32;;;;;;;;;;5028774;28;20201;-70
2024/02/04 00:33:03;;;;;;;24.77;11.68;;;;;;;;;;5047089;28;20232;-70
2024/02/04 00:35:28;;;;;;;26.42;11.18;;;;;;;;;;5043725;28;20677;-70
2024/02/04 00:37:54;;;;;;;28.08;10.48;;;;;;;;;;5046263;28;20351;-71
2024/02/04 00:40:19;;;;;;;32.85;11.70;;;;;;;;;;5040175;28;20181;-70
2024/02/04 00:42:44;;;;;;;24.20;11.20;;;;;;;;;;5044502;28;20277;-71
2024/02/04 00:45:09;;;;;;;26.80;10.77;;;;;;;;;;5049081;28;20256;-71
2024/02/04 00:47:34;;;;;;;24.88;8.93;;;;;;;;;;5042891;28;20208;-69
2024/02/04 00:50:00;;;;;;;23.35;9.98;;;;;;;;;;5042512;28;20190;-70
2024/02/04 00:52:25;;;;;;;16.85;9.20;;;;;;;;;;5028087;28;24867;-70
2024/02/04 00:54:50;;;;;;;16.92;8.27;;;;;;;;;;5031351;28;20185;-70
2024/02/04 00:57:15;;;;;;;17.10;9.30;;;;;;;;;;5048700;28;20201;-69
2024/02/04 00:59:40;;;;;;;16.90;9.40;;;;;;;;;;5046173;28;20174;-71
2024/02/04 01:02:06;;;;;;;21.60;9.32;;;;;;;;;;5029708;28;20180;-71
2024/02/04 01:04:31;;;;;;;18.55;8.55;;;;;;;;;;5045310;28;20634;-72
2024/02/04 01:06:56;;;;;;;21.90;8.68;;;;;;;;;;5049423;28;20207;-71
2024/02/04 01:09:22;;;;;;;22.27;8.52;;;;;;;;;;5046925;28;20189;-71
2024/02/04 01:11:47;;;;;;;20.42;8.43;;;;;;;;;;5042742;28;20177;-70
2024/02/04 01:14:12;;;;;;;22.15;9.50;;;;;;;;;;5047535;28;20592;-70
2024/02/04 01:16:37;;;;;;;22.85;8.40;;;;;;;;;;5053152;28;20728;-70
2024/02/04 01:19:03;;;;;;;14.85;8.73;;;;;;;;;;5049199;28;20608;-71
2024/02/04 01:21:29;;;;;;;17.75;9.07;;;;;;;;;;5047863;28;20185;-70
2024/02/04 01:23:54;;;;;;;22.08;8.57;;;;;;;;;;5030962;28;20220;-71
2024/02/04 01:26:20;;;;;;;18.02;8.57;;;;;;;;;;5046254;28;20256;-71
2024/02/04 01:28:45;;;;;;;20.45;10.23;;;;;;;;;;5045238;28;20189;-71
2024/02/04 01:31:10;;;;;;;16.63;9.73;;;;;;;;;;5050590;28;20557;-70
2024/02/04 01:33:36;;;;;;;19.10;8.80;;;;;;;;;;5043151;28;20202;-70
2024/02/04 01:36:01;;;;;;;15.95;8.75;;;;;;;;;;5041653;28;20250;-71
2024/02/04 01:38:26;;;;;;;14.30;9.18;;;;;;;;;;5044019;28;20239;-71
2024/02/04 01:40:53;;;;;;;22.13;9.27;;;;;;;;;;5049237;28;20212;-70
2024/02/04 01:43:21;;;;;;;20.25;8.65;;;;;;;;;;5051898;28;20778;-70
2024/02/04 01:45:46;;;;;;;22.33;9.70;;;;;;;;;;5050438;28;20227;-70
2024/02/04 01:48:13;;;;;;;14.05;8.73;;;;;;;;;;5025093;28;20193;-71
2024/02/04 01:50:39;;;;;;;17.90;9.93;;;;;;;;;;5045213;28;20244;-71
2024/02/04 01:53:04;;;;;;;21.98;9.38;;;;;;;;;;5047296;28;20202;-71
2024/02/04 01:55:29;;;;;;;20.73;8.93;;;;;;;;;;5053424;28;20189;-71
2024/02/04 01:57:55;;;;;;;25.25;10.07;;;;;;;;;;5049136;28;20672;-70
2024/02/04 02:00:20;;;;;;;23.55;10.40;;;;;;;;;;5051621;28;20665;-70
2024/02/04 02:02:46;;;;;;;25.92;12.75;;;;;;;;;;5049718;28;20221;-70
2024/02/04 02:05:11;;;;;;;25.70;11.75;;;;;;;;;;5051988;28;20177;-70
2024/02/04 02:07:36;;;;;;;31.73;12.10;;;;;;;;;;5053580;28;20653;-71
2024/02/04 02:10:03;;;;;;;22.45;11.07;;;;;;;;;;5055998;28;20220;-72
2024/02/04 02:15:23;;;;;;;21.42;9.38;;;;;;;;;;5051404;28;20231;-68
2024/02/04 02:17:54;;;;;;;18.08;8.98;;;;;;;;;;5052927;28;20252;-67
2024/02/04 02:20:31;;;;;;;15.65;8.82;;;;;;;;;;5052524;28;20185;-68
2024/02/04 02:23:07;;;;;;;18.30;9.02;;;;;;;;;;5052761;28;20180;-68
2024/02/04 02:25:33;;;;;;;23.42;8.35;;;;;;;;;;5052377;28;20188;-66
2024/02/04 02:27:58;;;;;;;20.33;9.15;;;;;;;;;;5052178;28;20193;-67
2024/02/04 02:30:24;;;;;;;14.90;8.55;;;;;;;;;;5034313;28;20177;-67
2024/02/04 02:32:49;;;;;;;23.63;9.30;;;;;;;;;;5053297;28;20181;-67
2024/02/04 02:35:18;;;;;;;20.35;9.57;;;;;;;;;;5047038;28;20536;-67
2024/02/04 02:37:46;;;;;;;21.25;8.88;;;;;;;;;;5034632;28;20201;-66
2024/02/04 02:40:26;;;;;;;18.27;10.05;;;;;;;;;;5051984;28;20266;-67
2024/02/04 02:42:53;;;;;;;17.65;8.68;;;;;;;;;;5045643;28;20174;-67
2024/02/04 02:45:19;;;;;;;17.40;8.68;;;;;;;;;;5050859;28;20219;-67
2024/02/04 02:47:44;;;;;;;17.65;8.88;;;;;;;;;;5048578;28;20188;-67
2024/02/04 02:50:10;;;;;;;16.70;8.27;;;;;;;;;;5050953;28;20173;-68
2024/02/04 02:52:35;;;;;;;22.20;8.32;;;;;;;;;;5049324;28;20189;-67
2024/02/04 02:55:00;;;;;;;14.68;7.22;;;;;;;;;;5050848;28;20201;-68
2024/02/04 02:57:25;;;;;;;13.23;7.15;;;;;;;;;;5050840;28;20430;-67
2024/02/04 02:59:50;;;;;;;20.60;7.30;;;;;;;;;;5051927;28;20177;-67
2024/02/04 03:02:16;;;;;;;14.00;5.82;;;;;;;;;;5050083;28;20570;-67
2024/02/04 03:04:41;;;;;;;15.70;6.90;;;;;;;;;;5048021;28;20201;-67
2024/02/04 03:07:07;;;;;;;15.65;5.97;;;;;;;;;;5051505;28;20269;-68
2024/02/04 03:09:32;;;;;;;10.70;6.40;;;;;;;;;;5048840;28;20185;-68
2024/02/04 03:11:58;;;;;;;20.10;7.27;;;;;;;;;;5049680;28;20181;-69
2024/02/04 03:14:23;;;;;;;21.98;6.93;;;;;;;;;;5045179;28;20299;-68
2024/02/04 03:16:48;;;;;;;11.45;5.68;;;;;;;;;;5050986;28;20300;-68
2024/02/04 03:19:13;;;;;;;15.63;6.85;;;;;;;;;;5049194;28;20177;-68
2024/02/04 03:21:38;;;;;;;18.47;7.83;;;;;;;;;;5048474;28;20176;-69
2024/02/04 03:24:04;;;;;;;17.83;7.83;;;;;;;;;;5050206;28;20260;-69
2024/02/04 03:26:29;;;;;;;13.85;6.57;;;;;;;;;;5050143;28;20252;-69
2024/02/04 03:28:54;;;;;;;18.33;7.30;;;;;;;;;;5049492;28;20198;-68
2024/02/04 03:31:23;;;;;;;26.83;8.65;;;;;;;;;;5030766;28;20170;-67
2024/02/04 03:33:48;;;;;;;17.17;7.28;;;;;;;;;;5043335;28;20284;-68
2024/02/04 03:36:15;;;;;;;19.70;7.93;;;;;;;;;;5049108;28;20261;-68
2024/02/04 03:38:41;;;;;;;19.85;6.43;;;;;;;;;;5048650;28;20169;-68
2024/02/04 03:41:06;;;;;;;20.52;7.80;;;;;;;;;;5047295;28;20537;-68
2024/02/04 03:43:31;;;;;;;15.23;7.07;;;;;;;;;;5049885;28;20249;-67
2024/02/04 03:45:57;;;;;;;14.13;7.25;;;;;;;;;;5045767;28;20257;-67
2024/02/04 03:48:22;;;;;;;20.13;7.53;;;;;;;;;;5048303;28;20265;-67
2024/02/04 03:50:47;;;;;;;18.27;8.07;;;;;;;;;;5048346;28;20178;-68
2024/02/04 03:53:12;;;;;;;13.95;6.72;;;;;;;;;;5049938;28;20708;-68
2024/02/04 03:55:37;;;;;;;19.52;8.45;;;;;;;;;;5048398;28;20189;-66
2024/02/04 03:58:03;;;;;;;23.75;9.02;;;;;;;;;;5047073;28;20209;-68
2024/02/04 04:00:28;;;;;;;19.95;8.60;;;;;;;;;;5041633;28;20268;-66
2024/02/04 04:02:53;;;;;;;21.17;7.63;;;;;;;;;;5034089;28;20177;-67
2024/02/04 04:05:18;;;;;;;15.27;7.97;;;;;;;;;;5049646;28;20379;-68
2024/02/04 04:07:43;;;;;;;19.95;7.45;;;;;;;;;;5045691;28;20186;-67
2024/02/04 04:10:09;;;;;;;18.27;8.57;;;;;;;;;;5046298;28;20185;-68
2024/02/04 04:12:34;;;;;;;14.75;7.43;;;;;;;;;;5029958;28;20181;-68
2024/02/04 04:14:59;;;;;;;15.38;8.20;;;;;;;;;;5046891;28;20636;-68
2024/02/04 04:17:24;;;;;;;16.83;8.57;;;;;;;;;;5046276;28;20613;-68
2024/02/04 04:19:49;;;;;;;19.85;8.93;;;;;;;;;;5045236;28;20625;-68
2024/02/04 04:22:15;;;;;;;27.30;9.40;;;;;;;;;;5045819;28;20170;-68
2024/02/04 04:24:40;;;;;;;18.23;10.45;;;;;;;;;;5049468;28;20247;-68
2024/02/04 04:27:05;;;;;;;24.07;11.63;;;;;;;;;;5049582;28;20290;-68
2024/02/04 04:29:30;;;;;;;26.17;11.03;;;;;;;;;;5028323;28;20181;-68
2024/02/04 04:31:56;;;;;;;25.03;11.80;;;;;;;;;;5047881;28;20264;-69
2024/02/04 04:34:21;;;;;;;19.53;10.70;;;;;;;;;;5030872;28;20684;-69
2024/02/04 04:36:46;;;;;;;25.80;11.27;;;;;;;;;;5048878;28;20190;-68
2024/02/04 04:39:12;;;;;;;21.92;10.88;;;;;;;;;;5043646;28;20178;-68
2024/02/04 04:41:37;;;;;;;22.43;11.73;;;;;;;;;;5028265;28;20177;-69
2024/02/04 04:44:02;;;;;;;24.98;12.13;;;;;;;;;;5047125;28;20196;-68
2024/02/04 04:46:28;;;;;;;24.47;12.20;;;;;;;;;;5048288;28;20178;-66
2024/02/04 04:48:57;;;;;;;23.77;12.20;;;;;;;;;;5030513;28;20174;-69
2024/02/04 04:51:22;;;;;;;30.48;13.95;;;;;;;;;;5044813;28;20178;-68
2024/02/04 04:53:48;;;;;;;28.80;13.00;;;;;;;;;;5049718;28;20552;-68
2024/02/04 04:56:13;;;;;;;25.95;13.52;;;;;;;;;;5046929;28;20166;-69
2024/02/04 04:58:38;;;;;;;30.55;12.63;;;;;;;;;;5047349;28;20300;-69
2024/02/04 05:01:04;;;;;;;28.10;13.27;;;;;;;;;;5044618;28;20169;-68
2024/02/04 05:03:29;;;;;;;32.03;12.77;;;;;;;;;;5042737;28;20198;-68
2024/02/04 05:05:54;;;;;;;26.90;12.40;;;;;;;;;;5046949;28;20178;-69
2024/02/04 05:08:20;;;;;;;33.27;12.90;;;;;;;;;;5047986;28;20180;-68
2024/02/04 05:10:45;;;;;;;25.87;13.00;;;;;;;;;;5046681;28;20219;-67
2024/02/04 05:13:10;;;;;;;27.63;12.40;;;;;;;;;;5046268;28;20716;-68
2024/02/04 05:15:35;;;;;;;23.90;11.27;;;;;;;;;;5047185;28;20189;-67
2024/02/04 05:18:00;;;;;;;26.70;13.43;;;;;;;;;;5046916;28;20289;-67
2024/02/04 05:20:26;;;;;;;30.98;13.13;;;;;;;;;;5045786;28;20589;-67
2024/02/04 05:22:51;;;;;;;38.10;15.90;;;;;;;;;;5047498;28;20574;-67
2024/02/04 05:25:16;;;;;;;30.67;15.10;;;;;;;;;;5047535;28;20180;-67
2024/02/04 05:27:41;;;;;;;32.67;14.63;;;;;;;;;;5049310;28;20230;-67
2024/02/04 05:30:07;;;;;;;34.45;16.98;;;;;;;;;;5051170;28;20260;-65
2024/02/04 05:32:32;;;;;;;31.77;15.23;;;;;;;;;;5052757;28;20292;-66
2024/02/04 05:34:57;;;;;;;33.77;15.30;;;;;;;;;;5052012;28;20247;-67
2024/02/04 05:37:22;;;;;;;33.83;15.53;;;;;;;;;;5051371;28;20194;-67
2024/02/04 05:39:48;;;;;;;38.83;17.63;;;;;;;;;;5051358;28;20748;-66
2024/02/04 05:42:13;;;;;;;39.43;15.87;;;;;;;;;;5052082;28;20181;-66
2024/02/04 05:44:38;;;;;;;32.90;16.97;;;;;;;;;;5051526;28;20201;-67
2024/02/04 05:47:03;;;;;;;30.73;16.27;;;;;;;;;;5049901;28;20223;-67
2024/02/04 05:49:29;;;;;;;31.30;15.73;;;;;;;;;;5051681;28;20188;-67
2024/02/04 05:51:54;;;;;;;26.70;14.98;;;;;;;;;;5049357;28;20177;-67
2024/02/04 05:54:19;;;;;;;34.40;14.40;;;;;;;;;;5050108;28;20570;-66
2024/02/04 05:56:44;;;;;;;29.73;15.50;;;;;;;;;;5049463;28;20200;-67
2024/02/04 05:59:09;;;;;;;38.03;16.77;;;;;;;;;;5051877;28;20178;-67
2024/02/04 06:01:35;;;;;;;32.00;15.13;;;;;;;;;;5048473;28;20193;-68
2024/02/04 06:04:00;;;;;;;27.93;13.93;;;;;;;;;;5033367;28;20221;-67
2024/02/04 06:06:25;;;;;;;37.42;14.43;;;;;;;;;;5049545;28;20170;-67
2024/02/04 06:08:51;;;;;;;29.92;13.52;;;;;;;;;;5050797;28;20174;-67
2024/02/04 06:11:16;;;;;;;30.40;12.57;;;;;;;;;;5047929;28;20186;-68
2024/02/04 06:13:42;;;;;;;26.67;13.45;;;;;;;;;;5050248;28;20220;-68
2024/02/04 06:16:08;;;;;;;26.90;13.48;;;;;;;;;;5046909;28;20174;-68
2024/02/04 06:18:35;;;;;;;25.33;12.23;;;;;;;;;;5045350;28;20699;-68
2024/02/04 06:21:00;;;;;;;25.98;11.30;;;;;;;;;;5049482;28;20180;-68
2024/02/04 06:23:25;;;;;;;23.33;12.88;;;;;;;;;;5049323;28;20201;-68
2024/02/04 06:25:50;;;;;;;23.23;10.93;;;;;;;;;;5028935;28;20584;-68
2024/02/04 06:28:15;;;;;;;17.90;10.73;;;;;;;;;;5050341;28;20576;-67
2024/02/04 06:30:41;;;;;;;24.15;10.32;;;;;;;;;;5033700;28;20212;-69
2024/02/04 06:33:06;;;;;;;20.48;9.95;;;;;;;;;;5047236;28;20232;-68
2024/02/04 06:35:31;;;;;;;17.00;8.45;;;;;;;;;;5048547;28;20178;-68
2024/02/04 06:37:57;;;;;;;20.25;9.27;;;;;;;;;;5045285;28;20688;-68
2024/02/04 06:40:22;;;;;;;17.40;9.48;;;;;;;;;;5048038;28;20177;-67
2024/02/04 06:42:47;;;;;;;14.15;7.15;;;;;;;;;;5047985;28;20558;-68
2024/02/04 06:45:12;;;;;;;15.77;7.23;;;;;;;;;;5050631;28;20182;-68
2024/02/04 06:47:38;;;;;;;16.65;7.20;;;;;;;;;;5030898;28;20186;-68
2024/02/04 06:50:05;;;;;;;20.83;7.68;;;;;;;;;;5051631;28;20529;-68
2024/02/04 06:52:30;;;;;;;14.10;7.20;;;;;;;;;;5049847;28;20182;-69
2024/02/04 06:54:55;;;;;;;11.65;7.60;;;;;;;;;;5048441;28;20210;-69
2024/02/04 06:57:21;;;;;;;11.85;7.78;;;;;;;;;;5031376;28;20451;-68
2024/02/04 06:59:46;;;;;;;13.43;6.67;;;;;;;;;;5050637;28;20259;-68
2024/02/04 07:02:11;;;;;;;17.37;9.37;;;;;;;;;;5049013;28;20170;-68
2024/02/04 07:04:36;;;;;;;15.27;7.73;;;;;;;;;;5046694;28;20205;-68
2024/02/04 07:07:02;;;;;;;11.85;6.60;;;;;;;;;;5049403;28;20652;-68
2024/02/04 07:09:27;;;;;;;13.95;6.95;;;;;;;;;;5045380;28;20269;-68
2024/02/04 07:11:52;;;;;;;12.70;6.20;;;;;;;;;;5050743;28;20174;-68
2024/02/04 07:14:17;;;;;;;13.27;6.57;;;;;;;;;;5049179;28;20201;-68
2024/02/04 07:16:42;;;;;;;10.57;6.40;;;;;;;;;;5049829;28;20201;-68
2024/02/04 07:19:08;;;;;;;15.82;6.50;;;;;;;;;;5047107;28;20189;-69
2024/02/04 07:21:33;;;;;;;11.23;6.93;;;;;;;;;;5026266;28;20252;-68
2024/02/04 07:23:58;;;;;;;14.38;7.82;;;;;;;;;;5031972;28;20949;-68
2024/02/04 07:26:23;;;;;;;10.20;6.83;;;;;;;;;;5048544;28;20266;-68
2024/02/04 07:28:49;;;;;;;11.40;6.63;;;;;;;;;;5048197;28;20174;-68
2024/02/04 07:31:14;;;;;;;16.52;8.93;;;;;;;;;;5048026;28;20174;-68
2024/02/04 07:33:39;;;;;;;15.37;8.47;;;;;;;;;;5045994;28;20293;-68
2024/02/04 07:36:05;;;;;;;18.58;8.43;;;;;;;;;;5028541;28;20174;-68
2024/02/04 07:38:30;;;;;;;24.13;8.55;;;;;;;;;;5048731;28;20335;-68
2024/02/04 07:40:58;;;;;;;25.87;8.70;;;;;;;;;;5049583;28;20185;-67
2024/02/04 07:43:23;;;;;;;23.57;7.73;;;;;;;;;;5048323;28;20194;-67
2024/02/04 07:45:49;;;;;;;13.97;6.53;;;;;;;;;;5048722;28;20717;-68
2024/02/04 07:48:14;;;;;;;15.73;6.87;;;;;;;;;;5049339;28;20244;-67
2024/02/04 07:50:39;;;;;;;14.20;6.88;;;;;;;;;;5045242;28;20193;-67
2024/02/04 07:53:04;;;;;;;9.80;5.07;;;;;;;;;;5047408;28;20209;-65
2024/02/04 07:55:29;;;;;;;12.33;5.50;;;;;;;;;;5046734;28;20174;-68
2024/02/04 07:57:55;;;;;;;14.97;4.00;;;;;;;;;;5043740;28;20197;-67
2024/02/04 08:00:20;;;;;;;10.07;4.93;;;;;;;;;;5043863;28;20197;-67
2024/02/04 08:02:46;;;;;;;12.47;5.37;;;;;;;;;;5046015;28;20447;-67
2024/02/04 08:05:12;;;;;;;9.23;6.17;;;;;;;;;;5042175;28;20240;-68
2024/02/04 08:07:37;;;;;;;15.20;6.03;;;;;;;;;;5043764;28;20676;-67
2024/02/04 08:10:02;;;;;;;10.43;6.50;;;;;;;;;;5045116;28;20685;-68
2024/02/04 08:12:27;;;;;;;14.63;7.33;;;;;;;;;;5050715;28;20723;-68
2024/02/04 08:14:53;;;;;;;16.70;7.45;;;;;;;;;;5062038;22;20248;-71
2024/02/04 08:17:18;;;;;;;17.42;7.57;;;;;;;;;;5049950;28;20197;-71
2024/02/04 08:19:43;;;;;;;15.13;8.52;;;;;;;;;;5032272;28;20185;-71
2024/02/04 08:22:08;;;;;;;17.98;7.95;;;;;;;;;;5055026;28;20622;-72
2024/02/04 08:24:34;;;;;;;17.77;8.60;;;;;;;;;;5031215;28;20255;-72
2024/02/04 08:26:59;;;;;;;20.50;8.13;;;;;;;;;;5049336;28;20217;-72
2024/02/04 08:29:24;;;;;;;10.93;6.45;;;;;;;;;;5051240;28;20185;-72
2024/02/04 08:31:50;;;;;;;19.37;7.30;;;;;;;;;;5040575;28;20189;-72
2024/02/04 08:34:15;;;;;;;12.75;6.25;;;;;;;;;;5046635;28;20312;-72
2024/02/04 08:36:41;;;;;;;17.02;5.68;;;;;;;;;;5048037;28;20272;-72
2024/02/04 08:39:06;;;;;;;13.85;6.13;;;;;;;;;;5034318;28;20169;-73
2024/02/04 08:41:31;;;;;;;11.97;5.90;;;;;;;;;;5050263;28;20269;-71
2024/02/04 08:43:56;;;;;;;9.15;4.78;;;;;;;;;;5046827;28;20194;-72
2024/02/04 08:46:21;;;;;;;8.13;4.70;;;;;;;;;;5043644;28;20169;-72
2024/02/04 08:48:47;;;;;;;13.50;4.88;;;;;;;;;;5027539;28;20186;-72
2024/02/04 08:51:16;;;;;;;7.22;3.90;;;;;;;;;;5049602;28;20177;-71
2024/02/04 08:53:41;;;;;;;10.70;4.83;;;;;;;;;;5049946;28;20205;-72
2024/02/04 08:56:07;;;;;;;6.28;3.80;;;;;;;;;;5051231;28;20224;-72
2024/02/04 08:58:32;;;;;;;8.45;3.55;;;;;;;;;;5028726;28;20205;-72
2024/02/04 09:00:57;;;;;;;8.20;4.30;;;;;;;;;;5049622;28;20177;-71
2024/02/04 09:03:23;;;;;;;10.57;3.60;;;;;;;;;;5049017;28;20282;-72
2024/02/04 09:05:48;;;;;;;5.00;3.25;;;;;;;;;;5048307;28;20181;-73
2024/02/04 09:08:13;;;;;;;9.57;3.08;;;;;;;;;;5051363;28;20990;-71
2024/02/04 09:10:38;;;;;;;6.97;2.70;;;;;;;;;;5044876;28;20264;-71
2024/02/04 09:13:04;;;;;;;8.13;2.78;;;;;;;;;;5046854;28;20360;-71
2024/02/04 09:15:29;;;;;;;7.70;2.70;;;;;;;;;;5048031;28;20625;-71
2024/02/04 09:17:54;;;;;;;4.97;2.85;;;;;;;;;;5048661;28;20314;-71
2024/02/04 09:20:19;;;;;;;4.30;1.77;;;;;;;;;;5046582;28;20177;-71
2024/02/04 09:22:44;;;;;;;4.93;2.08;;;;;;;;;;5047962;28;20267;-72
2024/02/04 09:25:10;;;;;;;4.28;2.08;;;;;;;;;;5043053;28;20667;-71
2024/02/04 09:27:35;;;;;;;11.35;2.85;;;;;;;;;;5026668;28;20220;-71
2024/02/04 09:30:01;;;;;;;5.47;2.05;;;;;;;;;;5045098;28;20181;-71
2024/02/04 09:32:26;;;;;;;4.38;2.28;;;;;;;;;;5029606;28;20177;-71
2024/02/04 09:34:51;;;;;;;6.30;1.92;;;;;;;;;;5049476;28;20286;-71
2024/02/04 09:37:16;;;;;;;5.00;1.88;;;;;;;;;;5041408;28;20217;-72
2024/02/04 09:39:41;;;;;;;5.60;2.08;;;;;;;;;;5043580;28;20173;-72
2024/02/04 09:42:07;;;;;;;6.53;2.40;;;;;;;;;;5046073;28;20677;-72
2024/02/04 09:44:33;;;;;;;4.25;2.67;;;;;;;;;;5048090;28;20228;-72
2024/02/04 09:46:59;;;;;;;2.55;1.23;;;;;;;;;;5030800;28;20182;-72
2024/02/04 09:49:25;;;;;;;4.50;1.75;;;;;;;;;;5045272;28;20635;-72
2024/02/04 09:51:50;;;;;;;3.13;1.67;;;;;;;;;;5047670;28;20189;-72
2024/02/04 09:54:16;;;;;;;3.53;1.25;;;;;;;;;;5043713;28;20194;-73
2024/02/04 09:56:42;;;;;;;6.10;1.60;;;;;;;;;;5044193;28;20203;-72
2024/02/04 09:59:07;;;;;;;1.90;1.05;;;;;;;;;;5022863;28;20193;-71
2024/02/04 10:01:32;;;;;;;3.42;1.20;;;;;;;;;;5048227;28;20177;-71
2024/02/04 10:03:58;;;;;;;2.45;1.30;;;;;;;;;;5046454;28;20216;-72
2024/02/04 10:06:23;;;;;;;2.67;1.15;;;;;;;;;;5045483;28;20196;-71
2024/02/04 10:08:49;;;;;;;4.88;1.00;;;;;;;;;;5045093;28;20170;-72
2024/02/04 10:11:14;;;;;;;2.80;0.65;;;;;;;;;;5044726;28;20266;-71
2024/02/04 10:13:46;;;;;;;4.03;1.10;;;;;;;;;;5049392;28;20214;-71
2024/02/04 10:16:12;;;;;;;2.63;0.80;;;;;;;;;;5044451;28;20185;-71
2024/02/04 10:18:37;;;;;;;1.65;1.10;;;;;;;;;;5050537;28;20224;-71
2024/02/04 10:21:02;;;;;;;1.15;0.75;;;;;;;;;;5049446;28;20272;-73
2024/02/04 10:23:27;;;;;;;1.70;0.70;;;;;;;;;;5052611;28;20238;-72
2024/02/04 10:25:59;;;;;;;4.10;1.15;;;;;;;;;;5047178;28;20188;-71
2024/02/04 10:28:24;;;;;;;1.77;0.70;;;;;;;;;;5047569;28;20174;-73
2024/02/04 10:30:49;;;;;;;2.55;0.60;;;;;;;;;;5049337;28;20197;-72
2024/02/04 10:33:15;;;;;;;3.45;1.27;;;;;;;;;;5051610;28;20177;-72
2024/02/04 10:35:42;;;;;;;3.90;1.98;;;;;;;;;;5052723;28;20532;-72
2024/02/04 10:38:07;;;;;;;4.53;2.33;;;;;;;;;;5048779;28;20198;-72
2024/02/04 10:40:32;;;;;;;6.45;3.25;;;;;;;;;;5048753;28;20182;-72
2024/02/04 10:43:00;;;;;;;5.63;3.70;;;;;;;;;;5049365;28;20593;-72
2024/02/04 10:45:27;;;;;;;4.68;3.47;;;;;;;;;;5027929;28;20605;-71
2024/02/04 10:47:56;;;;;;;3.85;3.50;;;;;;;;;;5047688;28;20193;-72
2024/02/04 10:50:22;;;;;;;4.43;2.90;;;;;;;;;;5052271;28;20176;-72
2024/02/04 10:52:48;;;;;;;4.68;2.70;;;;;;;;;;5050302;28;20189;-72
2024/02/04 10:55:15;;;;;;;3.95;2.45;;;;;;;;;;5047285;28;20213;-70
2024/02/04 10:57:40;;;;;;;6.97;2.55;;;;;;;;;;5030820;28;20591;-71
2024/02/04 11:00:08;;;;;;;4.72;2.85;;;;;;;;;;5050344;28;20177;-71
2024/02/04 11:02:37;;;;;;;5.45;3.35;;;;;;;;;;5031591;28;20209;-72
2024/02/04 11:05:04;;;;;;;6.18;3.63;;;;;;;;;;5049295;28;20206;-72
2024/02/04 11:07:33;;;;;;;8.73;4.47;;;;;;;;;;5049373;28;20310;-72
2024/02/04 11:09:58;;;;;;;8.65;4.63;;;;;;;;;;5045767;28;20235;-71
2024/02/04 11:12:25;;;;;;;9.32;5.32;;;;;;;;;;5050571;28;20186;-71
2024/02/04 11:14:52;;;;;;;7.55;4.65;;;;;;;;;;5046148;28;20221;-71
2024/02/04 11:17:41;;;;;;;11.35;3.97;;;;;;;;;;5045495;28;20216;-72
2024/02/04 11:20:24;;;;;;;10.63;4.53;;;;;;;;;;5034911;28;20612;-71
2024/02/04 11:22:53;;;;;;;11.80;3.88;;;;;;;;;;5027540;28;20179;-70
2024/02/04 11:25:24;;;;;;;6.32;3.60;;;;;;;;;;5027903;28;20761;-72
2024/02/04 11:27:49;;;;;;;12.68;4.07;;;;;;;;;;5028881;28;20201;-72
2024/02/04 11:30:15;;;;;;;11.77;4.30;;;;;;;;;;5048091;28;20645;-71
2024/02/04 11:32:40;;;;;;;13.95;3.40;;;;;;;;;;5032124;28;20561;-72
2024/02/04 11:35:07;;;;;;;6.75;3.20;;;;;;;;;;5047838;28;20746;-71
2024/02/04 11:37:33;;;;;;;10.65;3.22;;;;;;;;;;5048118;28;20227;-72
2024/02/04 11:39:58;;;;;;;10.02;3.28;;;;;;;;;;5046053;28;20169;-72
2024/02/04 11:42:24;;;;;;;7.03;2.80;;;;;;;;;;5051044;28;20182;-72
2024/02/04 11:44:50;;;;;;;5.32;2.78;;;;;;;;;;5023085;28;21634;-72
2024/02/04 11:47:25;;;;;;;8.15;3.17;;;;;;;;;;5044431;28;20709;-72
2024/02/04 11:49:57;;;;;;;6.95;2.50;;;;;;;;;;5029797;28;20192;-72
2024/02/04 11:52:22;;;;;;;9.80;2.80;;;;;;;;;;5050321;28;20315;-71
2024/02/04 11:54:48;;;;;;;7.07;2.80;;;;;;;;;;5048496;28;20731;-71
2024/02/04 11:57:14;;;;;;;7.72;2.92;;;;;;;;;;5050056;28;20611;-71
2024/02/04 11:59:39;;;;;;;6.55;2.70;;;;;;;;;;5051654;28;20186;-71
2024/02/04 12:02:07;;;;;;;3.75;2.40;;;;;;;;;;5045582;28;20554;-72
2024/02/04 12:04:33;;;;;;;6.88;2.40;;;;;;;;;;5049333;28;20189;-72
2024/02/04 12:06:58;;;;;;;7.82;3.05;;;;;;;;;;5045443;28;20816;-72
2024/02/04 12:09:24;;;;;;;9.13;3.08;;;;;;;;;;5030377;28;20185;-72
2024/02/04 12:11:49;;;;;;;6.13;2.53;;;;;;;;;;5049441;28;20173;-73
2024/02/04 12:14:17;;;;;;;7.93;2.65;;;;;;;;;;5038300;28;20202;-71
2024/02/04 12:16:42;;;;;;;4.43;2.92;;;;;;;;;;5047580;28;20185;-72
2024/02/04 12:19:07;;;;;;;6.55;2.10;;;;;;;;;;5048668;28;20178;-72
2024/02/04 12:21:33;;;;;;;9.43;2.72;;;;;;;;;;5049002;28;20182;-73
2024/02/04 12:23:59;;;;;;;6.00;3.53;;;;;;;;;;5048282;28;20288;-72
2024/02/04 12:26:24;;;;;;;4.07;2.50;;;;;;;;;;5045717;28;20174;-72
2024/02/04 12:28:52;;;;;;;6.88;2.00;;;;;;;;;;5047563;28;20449;-72
2024/02/04 12:31:18;;;;;;;5.82;2.20;;;;;;;;;;5048164;28;20184;-72
2024/02/04 12:33:51;;;;;;;5.60;2.00;;;;;;;;;;5045329;28;20683;-72
2024/02/04 12:36:17;;;;;;;7.85;1.95;;;;;;;;;;5044852;28;20185;-71
2024/02/04 12:38:49;;;;;;;8.93;1.75;;;;;;;;;;5048132;28;20654;-72
2024/02/04 12:41:14;;;;;;;4.90;2.58;;;;;;;;;;5048957;28;20362;-72
2024/02/04 12:43:40;;;;;;;8.32;1.88;;;;;;;;;;5030429;28;20247;-72
2024/02/04 12:46:05;;;;;;;5.20;2.33;;;;;;;;;;5047766;28;20231;-73
2024/02/04 12:48:31;;;;;;;11.38;2.40;;;;;;;;;;5045010;28;20290;-72
2024/02/04 12:50:56;;;;;;;9.45;3.05;;;;;;;;;;5027375;28;20185;-72
2024/02/04 12:53:21;;;;;;;5.47;2.60;;;;;;;;;;5043422;28;20577;-72
2024/02/04 12:55:46;;;;;;;4.53;2.47;;;;;;;;;;5048212;28;20345;-72
2024/02/04 12:58:14;;;;;;;8.25;3.08;;;;;;;;;;5049022;28;20204;-72
2024/02/04 13:00:39;;;;;;;8.30;3.70;;;;;;;;;;5045312;28;20174;-71
2024/02/04 13:03:05;;;;;;;6.68;2.95;;;;;;;;;;5046741;28;20185;-72
2024/02/04 13:05:31;;;;;;;10.18;3.90;;;;;;;;;;5044828;28;20648;-71
2024/02/04 13:08:02;;;;;;;6.55;2.88;;;;;;;;;;5043784;28;20209;-72
2024/02/04 13:10:27;;;;;;;5.53;2.97;;;;;;;;;;5028963;28;20189;-72
2024/02/04 13:13:08;;;;;;;11.10;3.22;;;;;;;;;;5045173;28;20216;-72
2024/02/04 13:15:36;;;;;;;7.80;3.65;;;;;;;;;;5048625;28;20201;-72
2024/02/04 13:18:02;;;;;;;8.32;3.00;;;;;;;;;;5045472;28;20206;-73
2024/02/04 13:20:27;;;;;;;6.85;2.78;;;;;;;;;;5046818;28;20170;-72
2024/02/04 13:22:53;;;;;;;6.68;2.60;;;;;;;;;;5046084;28;20170;-72
2024/02/04 13:25:19;;;;;;;8.63;2.90;;;;;;;;;;5043525;28;20190;-72
2024/02/04 13:27:44;;;;;;;7.20;2.88;;;;;;;;;;5049955;28;20211;-73
2024/02/04 13:30:11;;;;;;;7.10;2.88;;;;;;;;;;5029388;28;20181;-71
2024/02/04 13:32:38;;;;;;;6.78;2.53;;;;;;;;;;5048010;28;20236;-71
2024/02/04 13:35:03;;;;;;;7.63;2.90;;;;;;;;;;5039310;28;20882;-71
2024/02/04 13:37:28;;;;;;;6.72;2.20;;;;;;;;;;5048159;28;20296;-72
2024/02/04 13:39:54;;;;;;;11.27;3.42;;;;;;;;;;5046599;28;20565;-71
2024/02/04 13:42:20;;;;;;;6.78;2.67;;;;;;;;;;5031279;28;20205;-72
2024/02/04 13:44:45;;;;;;;4.50;1.95;;;;;;;;;;5046383;28;20225;-71
2024/02/04 13:47:10;;;;;;;9.10;2.85;;;;;;;;;;5049304;28;20213;-71
2024/02/04 13:49:35;;;;;;;4.28;2.15;;;;;;;;;;5049796;28;20174;-73
2024/02/04 13:52:00;;;;;;;10.48;2.60;;;;;;;;;;5049437;28;20576;-71
2024/02/04 13:54:26;;;;;;;8.82;1.92;;;;;;;;;;5052922;28;20205;-72
2024/02/04 13:56:51;;;;;;;7.35;2.20;;;;;;;;;;5048037;28;20173;-73
2024/02/04 13:59:16;;;;;;;14.63;2.50;;;;;;;;;;5052861;28;20276;-72
2024/02/04 14:01:41;;;;;;;9.55;1.90;;;;;;;;;;5055221;28;20196;-71
2024/02/04 14:04:07;;;;;;;5.03;2.10;;;;;;;;;;5057050;28;20205;-72
2024/02/04 14:06:32;;;;;;;11.60;3.00;;;;;;;;;;5046970;28;20314;-73
2024/02/04 14:08:57;;;;;;;4.25;1.63;;;;;;;;;;5052321;28;20563;-73
2024/02/04 14:11:22;;;;;;;4.72;2.60;;;;;;;;;;5054046;28;20249;-73
2024/02/04 14:13:48;;;;;;;7.72;1.83;;;;;;;;;;5051353;28;20680;-73
2024/02/04 14:16:13;;;;;;;4.65;1.73;;;;;;;;;;5049175;28;20653;-72
2024/02/04 14:18:40;;;;;;;7.88;2.20;;;;;;;;;;5047843;28;20292;-72
2024/02/04 14:21:06;;;;;;;6.22;1.92;;;;;;;;;;5034647;28;20597;-72
2024/02/04 14:23:32;;;;;;;5.68;2.13;;;;;;;;;;5045408;28;20561;-71
2024/02/04 14:25:57;;;;;;;7.50;1.90;;;;;;;;;;5049044;28;20378;-73